createdAt,value
2022-10-15T00:02:23.913Z,997.68
2022-10-15T00:05:23.915Z,997.7
2022-10-15T00:08:23.935Z,997.73
2022-10-15T00:11:23.916Z,997.73
2022-10-15T00:14:23.917Z,997.76
2022-10-15T00:17:24.267Z,997.64
2022-10-15T00:20:23.927Z,997.59
2022-10-15T00:23:23.918Z,997.54
2022-10-15T00:26:23.915Z,997.57
2022-10-15T00:29:23.935Z,997.56
2022-10-15T00:32:24.258Z,997.54
2022-10-15T00:35:23.922Z,997.48
2022-10-15T00:38:23.923Z,997.51
2022-10-15T00:41:23.944Z,997.56
2022-10-15T00:44:23.926Z,997.64
2022-10-15T00:47:23.935Z,997.59
2022-10-15T00:50:23.913Z,997.59
2022-10-15T00:53:23.930Z,997.52
2022-10-15T00:56:23.925Z,997.56
2022-10-15T00:59:23.950Z,997.51
2022-10-15T01:02:24.116Z,997.51
2022-10-15T01:05:23.924Z,997.42
2022-10-15T01:08:23.923Z,997.39
2022-10-15T01:11:23.965Z,997.36
2022-10-15T01:14:23.924Z,997.34
2022-10-15T01:17:24.167Z,997.3
2022-10-15T01:20:23.919Z,997.3
2022-10-15T01:23:25.275Z,997.27
2022-10-15T01:26:23.931Z,997.31
2022-10-15T01:29:24.051Z,997.26
2022-10-15T01:32:23.921Z,997.24
2022-10-15T01:35:23.925Z,997.23
2022-10-15T01:38:23.920Z,997.3
2022-10-15T01:41:23.932Z,997.33
2022-10-15T01:44:24.093Z,997.22
2022-10-15T01:47:24.184Z,997.22
2022-10-15T01:50:23.919Z,997.22
2022-10-15T01:53:23.927Z,997.24
2022-10-15T01:56:23.937Z,997.19
2022-10-15T01:59:23.933Z,997.08
2022-10-15T02:02:24.219Z,997.07
2022-10-15T02:05:23.939Z,997.11
2022-10-15T02:08:23.932Z,997.07
2022-10-15T02:11:23.932Z,997.07
2022-10-15T02:14:23.919Z,997.06
2022-10-15T02:17:23.945Z,997.03
2022-10-15T02:20:23.939Z,997.07
2022-10-15T02:23:23.945Z,997.07
2022-10-15T02:26:23.940Z,997.08
2022-10-15T02:29:23.944Z,997.13
2022-10-15T02:32:24.096Z,997.09
2022-10-15T02:35:23.940Z,997.13
2022-10-15T02:38:23.944Z,997.11
2022-10-15T02:41:23.942Z,997.14
2022-10-15T02:44:23.942Z,997.18
2022-10-15T02:50:23.945Z,997.2
2022-10-15T02:53:23.948Z,997.2
2022-10-15T02:56:24.171Z,997.15
2022-10-15T02:59:23.947Z,997.12
2022-10-15T03:02:23.949Z,997.09
2022-10-15T03:05:24.021Z,997.01
2022-10-15T03:08:23.943Z,996.98
2022-10-15T03:11:23.945Z,996.94
2022-10-15T03:14:24.043Z,997
2022-10-15T03:17:24.188Z,997.05
2022-10-15T03:20:23.940Z,997.07
2022-10-15T03:23:24.022Z,997.12
2022-10-15T03:26:23.944Z,997.07
2022-10-15T03:29:23.946Z,997.11
2022-10-15T03:32:23.974Z,997.1
2022-10-15T03:35:23.942Z,997.15
2022-10-15T03:38:23.945Z,997.17
2022-10-15T03:41:23.943Z,997.24
2022-10-15T03:44:23.946Z,997.27
2022-10-15T03:47:23.946Z,997.26
2022-10-15T03:50:23.950Z,997.23
2022-10-15T03:53:23.946Z,997.27
2022-10-15T03:56:23.948Z,997.33
2022-10-15T03:59:23.944Z,997.35
2022-10-15T04:02:24.262Z,997.23
2022-10-15T04:05:23.970Z,997.29
2022-10-15T04:08:23.964Z,997.27
2022-10-15T04:11:23.961Z,997.29
2022-10-15T04:14:23.965Z,997.33
2022-10-15T04:17:23.957Z,997.36
2022-10-15T04:20:23.968Z,997.33
2022-10-15T04:23:23.963Z,997.38
2022-10-15T04:26:23.956Z,997.42
2022-10-15T04:29:23.962Z,997.47
2022-10-15T04:32:24.039Z,997.56
2022-10-15T04:35:23.956Z,997.56
2022-10-15T04:38:23.960Z,997.57
2022-10-15T04:41:23.966Z,997.57
2022-10-15T04:44:23.961Z,997.56
2022-10-15T04:47:24.246Z,997.6
2022-10-15T04:50:23.973Z,997.59
2022-10-15T04:53:23.969Z,997.55
2022-10-15T04:56:23.960Z,997.51
2022-10-15T04:59:23.968Z,997.49
2022-10-15T05:02:24.016Z,997.58
2022-10-15T05:05:23.957Z,997.65
2022-10-15T05:08:23.955Z,997.69
2022-10-15T05:11:23.987Z,997.69
2022-10-15T05:14:23.966Z,997.8
2022-10-15T05:17:24.210Z,997.71
2022-10-15T05:20:23.966Z,997.71
2022-10-15T05:23:23.961Z,997.73
2022-10-15T05:26:23.960Z,997.67
2022-10-15T05:29:23.978Z,997.71
2022-10-15T05:32:24.052Z,997.74
2022-10-15T05:35:23.968Z,997.72
2022-10-15T05:38:23.977Z,997.78
2022-10-15T05:41:23.969Z,997.83
2022-10-15T05:44:23.961Z,997.82
2022-10-15T05:47:24.247Z,997.88
2022-10-15T05:50:23.982Z,998.01
2022-10-15T05:53:23.965Z,998.07
2022-10-15T05:56:23.968Z,998.09
2022-10-15T05:59:23.973Z,998.06
2022-10-15T06:02:24.357Z,998.11
2022-10-15T06:05:23.974Z,998.07
2022-10-15T06:08:23.966Z,998.17
2022-10-15T06:11:23.973Z,998.24
2022-10-15T06:14:23.971Z,998.32
2022-10-15T06:17:24.304Z,998.39
2022-10-15T06:20:23.975Z,998.42
2022-10-15T06:23:23.966Z,998.44
2022-10-15T06:26:23.972Z,998.46
2022-10-15T06:29:23.969Z,998.39
2022-10-15T06:32:23.966Z,998.43
2022-10-15T06:35:24.006Z,998.43
2022-10-15T06:38:23.972Z,998.47
2022-10-15T06:41:23.972Z,998.48
2022-10-15T06:44:23.981Z,998.51
2022-10-15T06:47:24.149Z,998.63
2022-10-15T06:50:23.987Z,998.68
2022-10-15T06:53:23.987Z,998.7
2022-10-15T06:56:23.978Z,998.77
2022-10-15T06:59:23.980Z,998.84
2022-10-15T07:02:24.160Z,998.91
2022-10-15T07:05:23.979Z,998.94
2022-10-15T07:08:23.983Z,998.94
2022-10-15T07:11:23.983Z,998.97
2022-10-15T07:14:23.981Z,998.98
2022-10-15T07:17:23.979Z,999.02
2022-10-15T07:20:24.410Z,999.11
2022-10-15T07:23:25.478Z,999.14
2022-10-15T07:26:23.976Z,999.13
2022-10-15T07:29:23.989Z,999.1
2022-10-15T07:32:24.232Z,999.09
2022-10-15T07:35:23.981Z,999.13
2022-10-15T07:38:23.973Z,999.23
2022-10-15T07:41:23.986Z,999.29
2022-10-15T07:44:23.984Z,999.23
2022-10-15T07:47:24.204Z,999.14
2022-10-15T07:50:24.020Z,999.21
2022-10-15T07:53:24.014Z,999.22
2022-10-15T07:56:24.002Z,999.22
2022-10-15T07:59:24.003Z,999.3
2022-10-15T08:02:24.314Z,999.34
2022-10-15T08:05:23.996Z,999.33
2022-10-15T08:08:23.998Z,999.31
2022-10-15T08:11:23.997Z,999.32
2022-10-15T08:14:24.007Z,999.32
2022-10-15T08:17:24.009Z,999.35
2022-10-15T08:20:24.009Z,999.36
2022-10-15T08:23:24.002Z,999.44
2022-10-15T08:26:24.001Z,999.42
2022-10-15T08:29:24.011Z,999.41
2022-10-15T08:32:24.287Z,999.42
2022-10-15T08:35:24.011Z,999.39
2022-10-15T08:38:24.020Z,999.45
2022-10-15T08:41:24.008Z,999.5
2022-10-15T08:44:24.014Z,999.48
2022-10-15T08:47:24.319Z,999.5
2022-10-15T08:50:24.019Z,999.5
2022-10-15T08:53:24.026Z,999.5
2022-10-15T08:56:24.035Z,999.51
2022-10-15T08:59:24.045Z,999.49
2022-10-15T09:02:24.024Z,999.5
2022-10-15T09:05:24.108Z,999.59
2022-10-15T09:08:24.053Z,999.61
2022-10-15T09:11:24.052Z,999.59
2022-10-15T09:14:24.042Z,999.61
2022-10-15T09:17:24.211Z,999.62
2022-10-15T09:20:24.054Z,999.62
2022-10-15T09:23:24.058Z,999.63
2022-10-15T09:26:24.056Z,999.68
2022-10-15T09:29:24.057Z,999.65
2022-10-15T09:32:24.212Z,999.61
2022-10-15T09:35:24.065Z,999.59
2022-10-15T09:38:24.050Z,999.62
2022-10-15T09:41:24.062Z,999.65
2022-10-15T09:44:24.057Z,999.63
2022-10-15T09:47:24.068Z,999.67
2022-10-15T09:50:24.063Z,999.7
2022-10-15T09:53:25.897Z,999.69
2022-10-15T09:56:24.058Z,999.72
2022-10-15T09:59:24.124Z,999.76
2022-10-15T10:02:24.332Z,999.7
2022-10-15T10:05:24.052Z,999.68
2022-10-15T10:08:24.059Z,999.73
2022-10-15T10:11:24.059Z,999.66
2022-10-15T10:14:24.063Z,999.64
2022-10-15T10:17:24.062Z,999.63
2022-10-15T10:20:24.055Z,999.7
2022-10-15T10:23:24.052Z,999.71
2022-10-15T10:26:24.063Z,999.73
2022-10-15T10:29:33.362Z,999.7
2022-10-15T10:32:24.057Z,999.78
2022-10-15T10:35:24.059Z,999.74
2022-10-15T10:38:24.058Z,999.76
2022-10-15T10:41:24.066Z,999.78
2022-10-15T10:44:24.052Z,999.77
2022-10-15T10:47:24.285Z,999.78
2022-10-15T10:50:24.060Z,999.75
2022-10-15T10:53:24.060Z,999.8
2022-10-15T10:56:24.068Z,999.76
2022-10-15T10:59:24.065Z,999.76
2022-10-15T11:02:24.065Z,999.77
2022-10-15T11:05:24.068Z,999.77
2022-10-15T11:08:24.067Z,999.75
2022-10-15T11:11:24.070Z,999.71
2022-10-15T11:14:24.064Z,999.66
2022-10-15T11:17:24.278Z,999.66
2022-10-15T11:20:44.436Z,999.61
2022-10-15T11:23:25.123Z,999.58
2022-10-15T11:26:24.076Z,999.56
2022-10-15T11:29:24.076Z,999.44
2022-10-15T11:32:25.530Z,999.44
2022-10-15T11:35:34.322Z,999.41
2022-10-15T11:38:24.067Z,999.36
2022-10-15T11:41:24.079Z,999.38
2022-10-15T11:44:24.081Z,999.37
2022-10-15T11:47:24.076Z,999.28
2022-10-15T11:50:24.079Z,999.27
2022-10-15T11:53:24.079Z,999.31
2022-10-15T11:56:24.066Z,999.26
2022-10-15T11:59:24.073Z,999.28
2022-10-15T12:02:24.268Z,999.23
2022-10-15T12:05:24.074Z,999.19
2022-10-15T12:08:24.068Z,999.22
2022-10-15T12:11:24.059Z,999.17
2022-10-15T12:14:24.073Z,999.16
2022-10-15T12:17:24.079Z,999.13
2022-10-15T12:20:24.080Z,999.08
2022-10-15T12:23:24.078Z,999.07
2022-10-15T12:26:24.080Z,999.03
2022-10-15T12:29:24.070Z,998.99
2022-10-15T12:32:24.076Z,998.93
2022-10-15T12:35:24.085Z,998.97
2022-10-15T12:38:24.087Z,998.94
2022-10-15T12:41:24.067Z,998.93
2022-10-15T12:44:24.073Z,998.97
2022-10-15T12:47:24.360Z,998.89
2022-10-15T12:50:24.076Z,998.84
2022-10-15T12:53:24.137Z,998.8
2022-10-15T12:56:24.085Z,998.71
2022-10-15T12:59:24.062Z,998.73
2022-10-15T13:02:24.075Z,998.62
2022-10-15T13:05:24.081Z,998.64
2022-10-15T13:08:24.256Z,998.63
2022-10-15T13:11:24.071Z,998.66
2022-10-15T13:14:24.077Z,998.58
2022-10-15T13:17:24.072Z,998.6
2022-10-15T13:20:24.076Z,998.59
2022-10-15T13:23:30.833Z,998.56
2022-10-15T13:26:24.075Z,998.61
2022-10-15T13:29:24.079Z,998.63
2022-10-15T13:32:24.242Z,998.6
2022-10-15T13:35:24.083Z,998.61
2022-10-15T13:38:24.073Z,998.64
2022-10-15T13:41:24.603Z,998.61
2022-10-15T13:44:24.094Z,998.57
2022-10-15T13:47:24.073Z,998.61
2022-10-15T13:50:24.079Z,998.64
2022-10-15T13:53:24.076Z,998.61
2022-10-15T13:56:24.070Z,998.58
2022-10-15T13:59:24.075Z,998.55
2022-10-15T14:02:24.348Z,998.59
2022-10-15T14:05:24.081Z,998.63
2022-10-15T14:08:24.076Z,998.67
2022-10-15T14:11:24.078Z,998.72
2022-10-15T14:14:24.080Z,998.68
2022-10-15T14:17:24.878Z,998.62
2022-10-15T14:20:27.146Z,998.63
2022-10-15T14:23:24.067Z,998.7
2022-10-15T14:26:24.072Z,998.69
2022-10-15T14:29:24.098Z,998.67
2022-10-15T14:32:24.070Z,998.67
2022-10-15T14:35:24.089Z,998.73
2022-10-15T14:38:24.079Z,998.72
2022-10-15T14:41:24.091Z,998.77
2022-10-15T14:44:24.102Z,998.72
2022-10-15T14:47:24.485Z,998.75
2022-10-15T14:50:24.068Z,998.77
2022-10-15T14:53:24.079Z,998.86
2022-10-15T14:56:24.078Z,998.9
2022-10-15T14:59:24.076Z,998.95
2022-10-15T15:02:24.268Z,998.97
2022-10-15T15:05:24.087Z,998.99
2022-10-15T15:08:24.081Z,998.95
2022-10-15T15:11:24.083Z,998.98
2022-10-15T15:14:24.073Z,998.94
2022-10-15T15:17:24.085Z,998.98
2022-10-15T15:20:24.079Z,998.95
2022-10-15T15:23:24.079Z,998.98
2022-10-15T15:26:24.088Z,998.99
2022-10-15T15:29:24.129Z,999
2022-10-15T15:32:24.495Z,999.04
2022-10-15T15:35:24.083Z,999.02
2022-10-15T15:38:24.105Z,999.02
2022-10-15T15:41:24.098Z,999.04
2022-10-15T15:44:24.083Z,999.12
2022-10-15T15:47:24.184Z,999.17
2022-10-15T15:50:24.086Z,999.14
2022-10-15T15:53:24.082Z,999.19
2022-10-15T15:56:24.090Z,999.18
2022-10-15T15:59:24.076Z,999.11
2022-10-15T16:02:24.073Z,999.15
2022-10-15T16:05:24.095Z,999.22
2022-10-15T16:08:24.080Z,999.18
2022-10-15T16:11:24.080Z,999.13
2022-10-15T16:14:24.087Z,999.14
2022-10-15T16:17:24.446Z,999.21
2022-10-15T16:20:24.083Z,999.28
2022-10-15T16:23:24.081Z,999.37
2022-10-15T16:26:24.088Z,999.36
2022-10-15T16:29:24.083Z,999.43
2022-10-15T16:32:24.079Z,999.42
2022-10-15T16:35:24.089Z,999.45
2022-10-15T16:38:24.084Z,999.43
2022-10-15T16:41:24.087Z,999.51
2022-10-15T16:44:24.086Z,999.53
2022-10-15T16:47:24.246Z,999.6
2022-10-15T16:50:24.092Z,999.62
2022-10-15T16:53:24.085Z,999.62
2022-10-15T16:56:24.084Z,999.69
2022-10-15T16:59:24.085Z,999.7
2022-10-15T17:02:24.318Z,999.8
2022-10-15T17:05:24.087Z,999.75
2022-10-15T17:08:26.660Z,999.77
2022-10-15T17:11:24.087Z,999.78
2022-10-15T17:14:24.089Z,999.82
2022-10-15T17:17:24.086Z,999.87
2022-10-15T17:20:24.086Z,999.9
2022-10-15T17:23:24.090Z,999.89
2022-10-15T17:26:24.095Z,999.89
2022-10-15T17:29:25.525Z,999.93
2022-10-15T17:32:24.367Z,999.98
2022-10-15T17:35:24.124Z,999.97
2022-10-15T17:38:24.110Z,999.96
2022-10-15T17:41:24.123Z,1000.03
2022-10-15T17:44:24.110Z,1000.07
2022-10-15T17:47:24.371Z,1000.09
2022-10-15T17:50:24.110Z,1000.11
2022-10-15T17:53:24.102Z,1000.19
2022-10-15T17:56:24.129Z,1000.19
2022-10-15T17:59:24.139Z,1000.19
2022-10-15T18:02:24.141Z,1000.23
2022-10-15T18:05:24.110Z,1000.32
2022-10-15T18:08:24.136Z,1000.38
2022-10-15T18:11:24.147Z,1000.41
2022-10-15T18:14:24.114Z,1000.4
2022-10-15T18:17:24.351Z,1000.39
2022-10-15T18:20:25.949Z,1000.41
2022-10-15T18:23:24.158Z,1000.43
2022-10-15T18:26:24.126Z,1000.44
2022-10-15T18:29:24.114Z,1000.41
2022-10-15T18:32:24.180Z,1000.43
2022-10-15T18:35:24.122Z,1000.47
2022-10-15T18:38:24.120Z,1000.48
2022-10-15T18:41:24.122Z,1000.45
2022-10-15T18:44:24.140Z,1000.49
2022-10-15T18:47:24.136Z,1000.57
2022-10-15T18:50:24.124Z,1000.65
2022-10-15T18:53:24.160Z,1000.8
2022-10-15T18:56:24.124Z,1000.82
2022-10-15T18:59:24.135Z,1000.83
2022-10-15T19:02:24.405Z,1000.78
2022-10-15T19:05:24.154Z,1000.78
2022-10-15T19:08:24.154Z,1000.81
2022-10-15T19:11:24.154Z,1000.74
2022-10-15T19:14:24.148Z,1000.82
2022-10-15T19:17:24.157Z,1000.85
2022-10-15T19:20:24.151Z,1000.86
2022-10-15T19:23:24.140Z,1000.9
2022-10-15T19:26:24.145Z,1000.87
2022-10-15T19:29:24.150Z,1000.78
2022-10-15T19:32:24.150Z,1000.84
2022-10-15T19:35:24.151Z,1000.86
2022-10-15T19:38:24.153Z,1000.86
2022-10-15T19:41:24.146Z,1000.84
2022-10-15T19:44:24.154Z,1000.75
2022-10-15T19:47:24.394Z,1000.8
2022-10-15T19:50:24.150Z,1000.86
2022-10-15T19:53:24.152Z,1000.93
2022-10-15T19:56:24.157Z,1001.06
2022-10-15T19:59:24.150Z,1001.19
2022-10-15T20:02:24.151Z,1001.22
2022-10-15T20:05:24.159Z,1001.25
2022-10-15T20:08:24.147Z,1001.27
2022-10-15T20:11:24.158Z,1001.32
2022-10-15T20:14:24.155Z,1001.35
2022-10-15T20:17:24.340Z,1001.28
2022-10-15T20:20:24.155Z,1001.3
2022-10-15T20:23:24.158Z,1001.39
2022-10-15T20:26:24.162Z,1001.33
2022-10-15T20:29:24.159Z,1001.38
2022-10-15T20:32:34.042Z,1001.44
2022-10-15T20:35:24.162Z,1001.47
2022-10-15T20:38:24.157Z,1001.51
2022-10-15T20:41:24.159Z,1001.58
2022-10-15T20:44:24.174Z,1001.46
2022-10-15T20:47:24.161Z,1001.29
2022-10-15T20:50:24.159Z,1001.37
2022-10-15T20:53:24.163Z,1001.49
2022-10-15T20:56:24.158Z,1001.43
2022-10-15T20:59:25.286Z,1001.54
2022-10-15T21:02:24.391Z,1001.68
2022-10-15T21:05:24.158Z,1001.7
2022-10-15T21:08:24.157Z,1001.77
2022-10-15T21:11:24.157Z,1001.85
2022-10-15T21:14:24.157Z,1001.81
2022-10-15T21:17:24.433Z,1001.77
2022-10-15T21:20:24.166Z,1001.75
2022-10-15T21:23:24.159Z,1001.82
2022-10-15T21:26:24.163Z,1001.86
2022-10-15T21:29:24.165Z,1001.92
2022-10-15T21:32:24.165Z,1001.97
2022-10-15T21:35:24.154Z,1001.97
2022-10-15T21:38:24.152Z,1001.93
2022-10-15T21:41:24.168Z,1001.84
2022-10-15T21:44:24.164Z,1001.79
2022-10-15T21:47:24.158Z,1001.81
2022-10-15T21:50:24.154Z,1001.95
2022-10-15T21:53:24.162Z,1001.97
2022-10-15T21:56:24.162Z,1002.02
2022-10-15T21:59:24.172Z,1002.15
2022-10-15T22:02:24.174Z,1002.15
2022-10-15T22:05:24.163Z,1002.2
2022-10-15T22:08:24.168Z,1002.35
2022-10-15T22:11:24.160Z,1002.34
2022-10-15T22:14:24.166Z,1002.4
2022-10-15T22:17:24.214Z,1002.41
2022-10-15T22:20:24.161Z,1002.44
2022-10-15T22:23:25.465Z,1002.49
2022-10-15T22:26:24.164Z,1002.46
2022-10-15T22:29:24.163Z,1002.46
2022-10-15T22:32:24.546Z,1002.44
2022-10-15T22:35:24.167Z,1002.44
2022-10-15T22:38:24.163Z,1002.49
2022-10-15T22:41:24.165Z,1002.49
2022-10-15T22:44:24.170Z,1002.48
2022-10-15T22:47:24.181Z,1002.48
2022-10-15T22:50:24.172Z,1002.43
2022-10-15T22:53:24.177Z,1002.48
2022-10-15T22:56:24.162Z,1002.51
2022-10-15T22:59:24.172Z,1002.51
2022-10-15T23:02:24.413Z,1002.51
2022-10-15T23:05:24.191Z,1002.44
2022-10-15T23:08:24.170Z,1002.46
2022-10-15T23:11:24.172Z,1002.45
2022-10-15T23:14:24.166Z,1002.52
2022-10-15T23:20:24.169Z,1002.63
2022-10-15T23:23:24.170Z,1002.67
2022-10-15T23:26:24.213Z,1002.71
2022-10-15T23:29:24.170Z,1002.72
2022-10-15T23:32:24.170Z,1002.7
2022-10-15T23:35:24.236Z,1002.73
2022-10-15T23:38:24.179Z,1002.72
2022-10-15T23:41:24.171Z,1002.75
2022-10-15T23:44:24.185Z,1002.77
2022-10-15T23:47:24.439Z,1002.8
2022-10-15T23:50:24.184Z,1002.85
2022-10-15T23:53:24.177Z,1002.9
2022-10-15T23:56:24.178Z,1002.89
2022-10-15T23:59:24.180Z,1002.89
